Terminal Aerodrome Forecast
Issued by NWS

Current Version | Previous Version | Graphics & Text | Print | Product List | Glossary On
Versions: 1 2 3 4 5 6 7 8 9 10 11 12 13 14 15 16 17 18 19 20 21 22 23
000
FTUS41 KRLX 011120
TAFCKB
TAF
KCKB 011120Z 0112/0212 VRB03KT P6SM SCT045
     FM011600 27007KT P6SM FEW050
     FM020000 VRB03KT P6SM SCT060
     FM021100 00000KT 6SM BR SCT250=

USA.gov is the U.S. government's official web portal to all federal, state and local government web resources and services.